createdAt,value
2017-03-15T00:00:59.565Z,94.37
2017-03-15T00:02:00.811Z,94.27
2017-03-15T00:03:02.042Z,94.18
2017-03-15T00:04:03.311Z,94.18
2017-03-15T00:05:04.552Z,94.46
2017-03-15T00:06:05.777Z,94.65
2017-03-15T00:07:07.031Z,94.56
2017-03-15T00:08:08.269Z,94.46
2017-03-15T00:09:09.535Z,94.65
2017-03-15T00:10:10.779Z,94.84
2017-03-15T00:11:12.018Z,95.12
2017-03-15T00:12:13.273Z,94.84
2017-03-15T00:13:14.581Z,95.22
2017-03-15T00:14:15.876Z,94.74
2017-03-15T00:15:17.148Z,94.84
2017-03-15T00:16:18.403Z,94.65
2017-03-15T00:17:19.641Z,95.12
2017-03-15T00:18:20.891Z,95.32
2017-03-15T00:19:22.145Z,95.22
2017-03-15T00:20:23.441Z,95.03
2017-03-15T00:21:24.632Z,95.12
2017-03-15T00:22:25.867Z,95.12
2017-03-15T00:23:27.122Z,95.32
2017-03-15T00:24:28.387Z,95.22
2017-03-15T00:25:29.715Z,94.84
2017-03-15T00:26:30.942Z,95.03
2017-03-15T00:27:32.191Z,95.03
2017-03-15T00:28:33.503Z,95.12
2017-03-15T00:29:34.768Z,94.84
2017-03-15T00:30:36.011Z,95.22
2017-03-15T00:31:37.248Z,95.22
2017-03-15T00:32:38.596Z,94.65
2017-03-15T00:33:39.910Z,94.74
2017-03-15T00:34:41.187Z,94.65
2017-03-15T00:35:42.589Z,94.74
2017-03-15T00:36:43.864Z,94.46
2017-03-15T00:37:45.067Z,94.46
2017-03-15T00:38:46.306Z,94.37
2017-03-15T00:39:47.642Z,94.08
2017-03-15T00:40:48.878Z,94.27
2017-03-15T00:41:50.139Z,94.27
2017-03-15T00:42:51.373Z,94.46
2017-03-15T00:43:52.620Z,93.89
2017-03-15T00:44:53.909Z,93.98
2017-03-15T00:45:55.151Z,93.98
2017-03-15T00:46:56.396Z,93.79
2017-03-15T00:47:57.625Z,93.6
2017-03-15T00:48:58.874Z,93.6
2017-03-15T00:50:00.182Z,93.6
2017-03-15T00:51:01.374Z,93.6
2017-03-15T00:52:02.621Z,93.04
2017-03-15T00:53:03.868Z,93.23
2017-03-15T00:54:05.129Z,93.41
2017-03-15T00:55:06.487Z,93.23
2017-03-15T00:56:07.734Z,93.55
2017-03-15T00:57:08.966Z,93.37
2017-03-15T00:58:10.211Z,93.18
2017-03-15T00:59:11.444Z,92.79
2017-03-15T01:00:12.729Z,93.08
2017-03-15T01:01:13.986Z,92.51
2017-03-15T01:02:15.225Z,92.7
2017-03-15T01:03:16.534Z,92.51
2017-03-15T01:04:17.812Z,92.22
2017-03-15T01:05:19.065Z,92.51
2017-03-15T01:06:20.313Z,92.13
2017-03-15T01:07:21.547Z,92.13
2017-03-15T01:08:22.790Z,92.75
2017-03-15T01:09:24.175Z,92.79
2017-03-15T01:10:25.540Z,93.04
2017-03-15T01:11:26.665Z,93.32
2017-03-15T01:12:27.913Z,93.13
2017-03-15T01:13:29.153Z,93.32
2017-03-15T01:14:30.400Z,93.23
2017-03-15T01:15:31.644Z,93.7
2017-03-15T01:16:32.920Z,93.6
2017-03-15T01:17:34.144Z,93.41
2017-03-15T01:18:35.390Z,93.41
2017-03-15T01:19:36.646Z,93.46
2017-03-15T01:20:37.906Z,93.37
2017-03-15T01:21:39.138Z,93.32
2017-03-15T01:22:40.436Z,93.37
2017-03-15T01:23:41.679Z,92.6
2017-03-15T01:24:42.922Z,92.99
2017-03-15T01:25:44.225Z,92.6
2017-03-15T01:26:45.467Z,92.03
2017-03-15T01:27:46.706Z,92.51
2017-03-15T01:28:47.953Z,92.41
2017-03-15T01:29:49.198Z,92.03
2017-03-15T01:30:50.441Z,91.75
2017-03-15T01:31:51.683Z,91.46
2017-03-15T01:32:52.924Z,91.46
2017-03-15T01:33:54.165Z,91.46
2017-03-15T01:34:55.403Z,92.03
2017-03-15T01:35:56.725Z,91.56
2017-03-15T01:36:58.003Z,91.65
2017-03-15T01:37:59.253Z,91.56
2017-03-15T01:39:00.491Z,91.56
2017-03-15T01:40:01.728Z,91.65
2017-03-15T01:41:03.000Z,91.08
2017-03-15T01:42:04.415Z,91.65
2017-03-15T01:43:05.778Z,91.46
2017-03-15T01:44:07.023Z,91.46
2017-03-15T01:45:08.266Z,90.7
2017-03-15T01:46:09.503Z,90.94
2017-03-15T01:47:10.755Z,90.7
2017-03-15T01:48:12.074Z,91.08
2017-03-15T01:49:13.309Z,91.08
2017-03-15T01:50:14.563Z,90.89
2017-03-15T01:51:15.799Z,90.94
2017-03-15T01:52:17.061Z,90.99
2017-03-15T01:53:18.299Z,91.17
2017-03-15T01:54:19.565Z,91.08
2017-03-15T01:55:20.797Z,90.89
2017-03-15T01:56:22.038Z,90.8
2017-03-15T01:57:23.293Z,90.42
2017-03-15T01:58:24.627Z,90.7
2017-03-15T01:59:25.843Z,90.89
2017-03-15T02:00:27.091Z,90.99
2017-03-15T02:01:28.353Z,90.32
2017-03-15T02:02:29.589Z,90.51
2017-03-15T02:03:30.861Z,90.7
2017-03-15T02:04:32.089Z,90.75
2017-03-15T02:05:33.323Z,90.99
2017-03-15T02:06:34.578Z,91.08
2017-03-15T02:07:35.907Z,90.61
2017-03-15T02:08:37.148Z,91.08
2017-03-15T02:09:38.393Z,91.17
2017-03-15T02:10:39.625Z,90.84
2017-03-15T02:11:40.897Z,90.99
2017-03-15T02:12:42.268Z,90.99
2017-03-15T02:13:43.529Z,90.99
2017-03-15T02:14:44.742Z,91.08
2017-03-15T02:15:46.021Z,90.94
2017-03-15T02:16:47.259Z,90.75
2017-03-15T02:17:48.513Z,90.65
2017-03-15T02:18:49.771Z,90.75
2017-03-15T02:19:51.057Z,90.7
2017-03-15T02:20:52.329Z,90.51
2017-03-15T02:21:53.577Z,90.75
2017-03-15T02:22:54.836Z,90.51
2017-03-15T02:23:56.154Z,90.42
2017-03-15T02:24:57.389Z,90.51
2017-03-15T02:25:58.644Z,90.8
2017-03-15T02:26:59.947Z,90.89
2017-03-15T02:28:01.200Z,90.99
2017-03-15T02:29:02.439Z,91.03
2017-03-15T02:30:03.696Z,90.42
2017-03-15T02:31:05.039Z,90.36
2017-03-15T02:32:06.300Z,90.7
2017-03-15T02:33:07.651Z,90.61
2017-03-15T02:34:08.888Z,90.46
2017-03-15T02:35:10.147Z,90.56
2017-03-15T02:36:11.406Z,90.46
2017-03-15T02:37:12.711Z,90.36
2017-03-15T02:38:13.964Z,90.32
2017-03-15T02:39:15.209Z,90.22
2017-03-15T02:40:16.460Z,90.51
2017-03-15T02:41:17.709Z,90.32
2017-03-15T02:42:18.970Z,90.32
2017-03-15T02:43:20.199Z,90.13
2017-03-15T02:44:21.472Z,90.22
2017-03-15T02:45:22.755Z,90.42
2017-03-15T02:46:23.974Z,90.61
2017-03-15T02:47:25.213Z,90.32
2017-03-15T02:48:26.451Z,90.42
2017-03-15T02:49:27.713Z,90.32
2017-03-15T02:50:28.991Z,90.22
2017-03-15T02:51:30.213Z,90.42
2017-03-15T02:52:31.459Z,90.61
2017-03-15T02:53:32.681Z,90.99
2017-03-15T02:54:33.915Z,90.61
2017-03-15T02:55:35.173Z,90.7
2017-03-15T02:56:36.425Z,90.7
2017-03-15T02:57:37.916Z,90.51
2017-03-15T02:58:39.066Z,90.61
2017-03-15T02:59:40.430Z,90.61
2017-03-15T03:00:41.653Z,90.51
2017-03-15T03:01:42.922Z,90.7
2017-03-15T03:02:44.189Z,90.51
2017-03-15T03:03:45.416Z,90.61
2017-03-15T03:04:46.648Z,90.7
2017-03-15T03:05:47.916Z,90.42
2017-03-15T03:06:49.158Z,90.89
2017-03-15T03:07:50.435Z,90.8
2017-03-15T03:08:51.715Z,90.99
2017-03-15T03:09:52.954Z,90.8
2017-03-15T03:10:54.268Z,91.17
2017-03-15T03:11:55.612Z,91.08
2017-03-15T03:12:56.831Z,90.99
2017-03-15T03:13:58.070Z,90.7
2017-03-15T03:14:59.330Z,90.8
2017-03-15T03:16:00.589Z,91.46
2017-03-15T03:17:01.821Z,91.46
2017-03-15T03:18:03.076Z,91.56
2017-03-15T03:19:04.335Z,91.37
2017-03-15T03:20:05.575Z,91.65
2017-03-15T03:21:06.802Z,91.46
2017-03-15T03:22:08.195Z,91.7
2017-03-15T03:23:09.323Z,91.8
2017-03-15T03:24:10.572Z,92.08
2017-03-15T03:25:11.879Z,92.46
2017-03-15T03:26:13.133Z,92.18
2017-03-15T03:27:14.397Z,92.65
2017-03-15T03:28:15.640Z,92.84
2017-03-15T03:29:16.996Z,92.84
2017-03-15T03:30:18.227Z,93.41
2017-03-15T03:31:19.547Z,93.51
2017-03-15T03:32:20.774Z,93.04
2017-03-15T03:33:22.009Z,93.6
2017-03-15T03:34:23.252Z,93.32
2017-03-15T03:35:24.581Z,93.51
2017-03-15T03:36:25.861Z,93.23
2017-03-15T03:37:27.078Z,93.13
2017-03-15T03:38:28.336Z,93.51
2017-03-15T03:39:29.549Z,93.51
2017-03-15T03:40:30.800Z,93.04
2017-03-15T03:41:32.062Z,93.32
2017-03-15T03:42:33.314Z,93.13
2017-03-15T03:43:34.717Z,93.13
2017-03-15T03:44:36.006Z,93.23
2017-03-15T03:45:37.255Z,93.04
2017-03-15T03:46:38.490Z,93.04
2017-03-15T03:47:39.742Z,92.75
2017-03-15T03:48:41.010Z,92.84
2017-03-15T03:49:42.218Z,92.94
2017-03-15T03:50:43.453Z,92.75
2017-03-15T03:51:44.716Z,92.94
2017-03-15T03:52:45.963Z,92.65
2017-03-15T03:53:47.322Z,92.84
2017-03-15T03:54:48.544Z,92.56
2017-03-15T03:55:49.792Z,92.65
2017-03-15T03:56:51.033Z,92.56
2017-03-15T03:57:52.281Z,93.04
2017-03-15T03:58:53.538Z,92.75
2017-03-15T03:59:54.852Z,92.75
2017-03-15T04:00:56.270Z,92.94
2017-03-15T04:01:57.512Z,92.56
2017-03-15T04:02:58.757Z,92.56
2017-03-15T04:04:00.026Z,92.56
2017-03-15T04:05:01.258Z,92.84
2017-03-15T04:06:02.606Z,92.94
2017-03-15T04:07:03.832Z,92.75
2017-03-15T04:08:05.074Z,93.13
2017-03-15T04:09:06.383Z,93.23
2017-03-15T04:10:07.571Z,93.04
2017-03-15T04:11:08.883Z,93.04
2017-03-15T04:12:10.279Z,93.23
2017-03-15T04:13:11.470Z,93.51
2017-03-15T04:14:12.729Z,93.23
2017-03-15T04:15:13.966Z,93.51
2017-03-15T04:16:15.213Z,93.04
2017-03-15T04:17:16.504Z,93.04
2017-03-15T04:18:17.739Z,93.23
2017-03-15T04:19:18.982Z,93.79
2017-03-15T04:20:20.271Z,93.6
2017-03-15T04:21:21.522Z,93.6
2017-03-15T04:22:22.811Z,93.79
2017-03-15T04:23:24.050Z,93.89
2017-03-15T04:24:25.303Z,93.6
2017-03-15T04:25:26.588Z,93.84
2017-03-15T04:26:28.029Z,94.22
2017-03-15T04:27:29.260Z,93.98
2017-03-15T04:28:30.523Z,93.94
2017-03-15T04:29:31.746Z,93.84
2017-03-15T04:30:32.996Z,94.22
2017-03-15T04:31:34.332Z,94.42
2017-03-15T04:32:35.569Z,94.6
2017-03-15T04:33:36.816Z,94.6
2017-03-15T04:34:38.046Z,94.42
2017-03-15T04:35:39.280Z,94.79
2017-03-15T04:36:40.529Z,94.7
2017-03-15T04:37:41.836Z,95.17
2017-03-15T04:38:43.071Z,95.17
2017-03-15T04:39:44.306Z,94.98
2017-03-15T04:40:45.548Z,94.7
2017-03-15T04:41:46.806Z,94.79
2017-03-15T04:42:48.056Z,95.08
2017-03-15T04:43:49.302Z,94.89
2017-03-15T04:44:50.592Z,94.89
2017-03-15T04:45:51.855Z,94.98
2017-03-15T04:46:53.122Z,95.36
2017-03-15T04:47:54.369Z,95.36
2017-03-15T04:48:55.623Z,95.36
2017-03-15T04:49:56.881Z,95.17
2017-03-15T04:50:58.229Z,95.56
2017-03-15T04:51:59.479Z,95.65
2017-03-15T04:53:00.742Z,95.65
2017-03-15T04:54:01.973Z,95.17
2017-03-15T04:55:03.258Z,95.46
2017-03-15T04:56:04.473Z,95.84
2017-03-15T04:57:05.836Z,95.84
2017-03-15T04:58:06.979Z,95.65
2017-03-15T04:59:08.210Z,95.56
2017-03-15T05:00:09.448Z,96.03
2017-03-15T05:01:10.692Z,95.56
2017-03-15T05:02:11.928Z,95.84
2017-03-15T05:03:13.216Z,95.84
2017-03-15T05:04:14.428Z,95.75
2017-03-15T05:05:15.685Z,95.65
2017-03-15T05:06:16.921Z,95.56
2017-03-15T05:07:18.160Z,95.65
2017-03-15T05:08:19.423Z,95.56
2017-03-15T05:09:20.652Z,95.27
2017-03-15T05:10:21.907Z,95.36
2017-03-15T05:11:23.148Z,94.89
2017-03-15T05:12:24.380Z,94.89
2017-03-15T05:13:25.624Z,94.98
2017-03-15T05:14:26.872Z,94.98
2017-03-15T05:15:28.106Z,94.89
2017-03-15T05:16:29.346Z,94.79
2017-03-15T05:17:30.629Z,95.17
2017-03-15T05:18:31.869Z,94.98
2017-03-15T05:19:33.102Z,94.6
2017-03-15T05:20:34.351Z,94.42
2017-03-15T05:21:35.592Z,94.6
2017-03-15T05:22:36.849Z,94.42
2017-03-15T05:23:38.113Z,94.22
2017-03-15T05:24:39.374Z,94.32
2017-03-15T05:25:40.606Z,94.42
2017-03-15T05:26:41.853Z,94.42
2017-03-15T05:27:43.096Z,93.65
2017-03-15T05:28:44.360Z,93.75
2017-03-15T05:29:45.619Z,93.65
2017-03-15T05:30:46.845Z,93.94
2017-03-15T05:31:48.084Z,93.7
2017-03-15T05:32:49.322Z,93.98
2017-03-15T05:33:50.565Z,93.55
2017-03-15T05:34:51.804Z,93.7
2017-03-15T05:35:53.085Z,93.41
2017-03-15T05:36:54.410Z,93.41
2017-03-15T05:37:55.628Z,93.32
2017-03-15T05:38:56.860Z,93.6
2017-03-15T05:39:58.125Z,92.94
2017-03-15T05:40:59.354Z,93.13
2017-03-15T05:42:00.584Z,92.75
2017-03-15T05:43:01.829Z,93.04
2017-03-15T05:44:03.075Z,92.75
2017-03-15T05:45:04.368Z,92.75
2017-03-15T05:46:05.651Z,92.46
2017-03-15T05:47:06.878Z,92.65
2017-03-15T05:48:08.125Z,92.18
2017-03-15T05:49:09.366Z,92.08
2017-03-15T05:50:10.705Z,91.99
2017-03-15T05:51:11.952Z,92.27
2017-03-15T05:52:13.210Z,92.18
2017-03-15T05:53:14.432Z,92.46
2017-03-15T05:54:15.712Z,92.27
2017-03-15T05:55:16.962Z,92.56
2017-03-15T05:56:18.212Z,91.99
2017-03-15T05:57:19.479Z,91.99
2017-03-15T05:58:20.699Z,91.7
2017-03-15T05:59:22.126Z,91.89
2017-03-15T06:00:23.372Z,91.51
2017-03-15T06:01:24.633Z,91.42
2017-03-15T06:02:25.938Z,91.51
2017-03-15T06:03:27.204Z,91.7
2017-03-15T06:04:28.423Z,91.51
2017-03-15T06:05:29.661Z,91.7
2017-03-15T06:06:30.915Z,91.22
2017-03-15T06:07:32.179Z,91.13
2017-03-15T06:08:33.418Z,91.7
2017-03-15T06:09:34.643Z,91.61
2017-03-15T06:10:35.895Z,91.42
2017-03-15T06:11:37.129Z,90.94
2017-03-15T06:12:38.382Z,90.84
2017-03-15T06:13:39.629Z,90.94
2017-03-15T06:14:40.886Z,91.03
2017-03-15T06:15:42.142Z,90.37
2017-03-15T06:16:43.374Z,90.56
2017-03-15T06:17:44.611Z,89.99
2017-03-15T06:18:45.862Z,90.22
2017-03-15T06:19:47.110Z,90.61
2017-03-15T06:20:48.349Z,90.22
2017-03-15T06:21:49.590Z,90.03
2017-03-15T06:22:50.837Z,89.47
2017-03-15T06:23:52.085Z,89.18
2017-03-15T06:24:53.344Z,89.27
2017-03-15T06:25:54.580Z,88.89
2017-03-15T06:26:56.014Z,89.08
2017-03-15T06:27:57.263Z,89.08
2017-03-15T06:28:58.540Z,88.6
2017-03-15T06:29:59.820Z,88.89
2017-03-15T06:31:01.051Z,88.7
2017-03-15T06:32:02.296Z,88.13
2017-03-15T06:33:03.539Z,88.42
2017-03-15T06:34:04.786Z,87.94
2017-03-15T06:35:06.083Z,88.04
2017-03-15T06:36:07.322Z,87.75
2017-03-15T06:37:08.583Z,87.65
2017-03-15T06:38:09.806Z,88.13
2017-03-15T06:39:11.076Z,87.85
2017-03-15T06:40:12.324Z,87.56
2017-03-15T06:41:13.552Z,87.46
2017-03-15T06:42:14.792Z,87.27
2017-03-15T06:43:16.092Z,87.46
2017-03-15T06:44:17.338Z,87.56
2017-03-15T06:45:18.858Z,87.18
2017-03-15T06:46:20.121Z,86.94
2017-03-15T06:47:21.414Z,86.65
2017-03-15T06:48:22.725Z,86.65
2017-03-15T06:49:23.987Z,86.27
2017-03-15T06:50:25.201Z,86.08
2017-03-15T06:51:26.493Z,86.18
2017-03-15T06:52:27.730Z,85.51
2017-03-15T06:53:28.988Z,85.6
2017-03-15T06:54:30.257Z,84.84
2017-03-15T06:55:31.479Z,84.75
2017-03-15T06:56:32.728Z,84.84
2017-03-15T06:57:33.980Z,84.56
2017-03-15T06:58:35.235Z,83.89
2017-03-15T06:59:36.511Z,83.8
2017-03-15T07:00:37.816Z,84.08
2017-03-15T07:01:39.012Z,83.65
2017-03-15T07:02:40.255Z,83.36
2017-03-15T07:03:41.513Z,82.89
2017-03-15T07:04:42.734Z,83.26
2017-03-15T07:05:43.988Z,81.88
2017-03-15T07:06:45.245Z,80.73
2017-03-15T07:07:46.490Z,81.12
2017-03-15T07:08:47.733Z,80.92
2017-03-15T07:09:48.971Z,79.53
2017-03-15T07:10:50.208Z,79.06
2017-03-15T07:11:51.478Z,78.49
2017-03-15T07:12:52.695Z,78.49
2017-03-15T07:13:53.955Z,77.25
2017-03-15T07:14:55.173Z,76.81
2017-03-15T07:15:56.404Z,76.14
2017-03-15T07:16:57.648Z,75.76
2017-03-15T07:17:58.890Z,75.03
2017-03-15T07:19:00.150Z,74.37
2017-03-15T07:20:01.399Z,74.52
2017-03-15T07:21:02.699Z,74.08
2017-03-15T07:22:04.006Z,73.32
2017-03-15T07:23:05.235Z,73.03
2017-03-15T07:24:06.481Z,72.74
2017-03-15T07:25:07.753Z,72.26
2017-03-15T07:26:09.030Z,71.88
2017-03-15T07:27:10.293Z,71.98
2017-03-15T07:28:11.542Z,72.55
2017-03-15T07:29:12.784Z,72.36
2017-03-15T07:30:14.030Z,72.55
2017-03-15T07:31:15.288Z,72.17
2017-03-15T07:32:16.589Z,72.26
2017-03-15T07:33:17.850Z,72.07
2017-03-15T07:34:19.096Z,71.98
2017-03-15T07:35:20.337Z,71.41
2017-03-15T07:36:21.607Z,71.5
2017-03-15T07:37:22.832Z,71.69
2017-03-15T07:38:24.146Z,72.26
2017-03-15T07:39:25.393Z,72.45
2017-03-15T07:40:26.624Z,72.26
2017-03-15T07:41:27.943Z,71.31
2017-03-15T07:42:29.149Z,71.59
2017-03-15T07:43:30.446Z,71.5
2017-03-15T07:44:31.684Z,71.59
2017-03-15T07:45:33.028Z,71.12
2017-03-15T07:46:34.277Z,70.73
2017-03-15T07:47:35.530Z,70.83
2017-03-15T07:48:36.898Z,70.64
2017-03-15T07:49:38.149Z,70.92
2017-03-15T07:50:39.405Z,70.92
2017-03-15T07:51:40.697Z,70.73
2017-03-15T07:52:41.953Z,70.73
2017-03-15T07:53:43.178Z,70.26
2017-03-15T07:54:44.427Z,70.45
2017-03-15T07:55:45.694Z,70.45
2017-03-15T07:56:46.931Z,70.36
2017-03-15T07:57:48.216Z,69.87
2017-03-15T07:58:49.447Z,69.24
2017-03-15T07:59:50.695Z,67.75
2017-03-15T08:00:51.937Z,66.16
2017-03-15T08:01:53.224Z,65.2
2017-03-15T08:02:54.518Z,63.99
2017-03-15T08:03:55.832Z,63.32
2017-03-15T08:04:57.073Z,61.88
2017-03-15T08:05:58.332Z,61.25
2017-03-15T08:06:59.554Z,60.41
2017-03-15T08:08:00.802Z,58.98
2017-03-15T08:09:02.053Z,58.53
2017-03-15T08:10:03.300Z,57.38
2017-03-15T08:11:04.626Z,55.68
2017-03-15T08:12:05.928Z,55.4
2017-03-15T08:13:07.173Z,54.75
2017-03-15T08:14:08.694Z,53.99
2017-03-15T08:15:10.026Z,53.79
2017-03-15T08:16:11.203Z,53.03
2017-03-15T08:17:12.457Z,53.22
2017-03-15T08:18:13.704Z,53.12
2017-03-15T08:19:14.990Z,52.76
2017-03-15T08:20:16.291Z,52.09
2017-03-15T08:21:17.535Z,51.32
2017-03-15T08:22:18.803Z,51.73
2017-03-15T08:23:20.055Z,50.39
2017-03-15T08:24:21.309Z,50.1
2017-03-15T08:25:22.560Z,49.91
2017-03-15T08:26:23.805Z,49.36
2017-03-15T08:27:25.074Z,48.76
2017-03-15T08:28:26.338Z,49.07
2017-03-15T08:29:27.602Z,49.15
2017-03-15T08:30:28.866Z,49.33
2017-03-15T08:31:30.136Z,49.91
2017-03-15T08:32:31.362Z,49.43
2017-03-15T08:33:32.600Z,49.24
2017-03-15T08:34:33.849Z,49.91
2017-03-15T08:35:35.132Z,49.72
2017-03-15T08:36:36.394Z,49.88
2017-03-15T08:37:37.625Z,50.65
2017-03-15T08:38:38.945Z,51.1
2017-03-15T08:39:40.234Z,51.87
2017-03-15T08:40:41.493Z,51.68
2017-03-15T08:41:42.843Z,51.49
2017-03-15T08:42:44.105Z,51.59
2017-03-15T08:43:45.356Z,51.23
2017-03-15T08:44:46.593Z,51.23
2017-03-15T08:45:47.843Z,50.94
2017-03-15T08:46:49.128Z,50.46
2017-03-15T08:47:50.398Z,50.46
2017-03-15T08:48:51.651Z,51.14
2017-03-15T08:49:52.905Z,51.04
2017-03-15T08:50:54.148Z,50.84
2017-03-15T08:51:55.392Z,50.46
2017-03-15T08:52:56.681Z,50.17
2017-03-15T08:53:57.911Z,49.69
2017-03-15T08:54:59.169Z,49.02
2017-03-15T08:56:00.403Z,49.79
2017-03-15T08:57:01.657Z,49.02
2017-03-15T08:58:02.905Z,49.12
2017-03-15T08:59:04.156Z,49.31
2017-03-15T09:00:05.465Z,49.02
2017-03-15T09:01:06.766Z,49.79
2017-03-15T09:02:08.017Z,49.12
2017-03-15T09:03:09.268Z,49.31
2017-03-15T09:04:10.515Z,48.93
2017-03-15T09:05:11.766Z,48.93
2017-03-15T09:06:13.007Z,49.82
2017-03-15T09:07:14.330Z,48.93
2017-03-15T09:08:15.602Z,48.76
2017-03-15T09:09:16.914Z,49.05
2017-03-15T09:10:18.174Z,48.66
2017-03-15T09:11:19.426Z,49.05
2017-03-15T09:12:20.703Z,49.05
2017-03-15T09:13:21.942Z,48.47
2017-03-15T09:14:23.183Z,48.18
2017-03-15T09:15:24.432Z,48.66
2017-03-15T09:16:25.728Z,48.49
2017-03-15T09:17:27.006Z,47.82
2017-03-15T09:18:28.419Z,47.05
2017-03-15T09:19:29.652Z,46.48
2017-03-15T09:20:30.906Z,46.28
2017-03-15T09:21:32.158Z,46.67
2017-03-15T09:22:33.401Z,46.21
2017-03-15T09:23:34.668Z,45.92
2017-03-15T09:24:35.933Z,46.02
2017-03-15T09:25:37.188Z,45.73
2017-03-15T09:26:38.486Z,45.42
2017-03-15T09:27:39.777Z,45.14
2017-03-15T09:28:41.016Z,45.32
2017-03-15T09:29:42.301Z,46.21
2017-03-15T09:30:43.523Z,45.9
2017-03-15T09:31:44.822Z,45.23
2017-03-15T09:32:46.071Z,45.42
2017-03-15T09:33:47.342Z,45.61
2017-03-15T09:34:48.603Z,44.77
2017-03-15T09:35:49.829Z,44.96
2017-03-15T09:36:51.126Z,44.2
2017-03-15T09:37:52.433Z,44.96
2017-03-15T09:38:53.690Z,44.96
2017-03-15T09:39:54.923Z,44.68
2017-03-15T09:40:56.173Z,44.58
2017-03-15T09:41:57.431Z,44.58
2017-03-15T09:42:58.681Z,44.58
2017-03-15T09:44:00.031Z,44.1
2017-03-15T09:45:01.288Z,43.45
2017-03-15T09:46:02.511Z,42.77
2017-03-15T09:47:03.761Z,42.3
2017-03-15T09:48:05.113Z,42.03
2017-03-15T09:49:06.491Z,41.83
2017-03-15T09:50:07.744Z,40.58
2017-03-15T09:51:09.012Z,41.18
2017-03-15T09:52:10.264Z,41.08
2017-03-15T09:53:11.522Z,40.14
2017-03-15T09:54:12.803Z,39.66
2017-03-15T09:55:14.034Z,38.99
2017-03-15T09:56:15.278Z,39.18
2017-03-15T09:57:16.543Z,38.6
2017-03-15T09:58:17.788Z,38.22
2017-03-15T09:59:19.018Z,37.43
2017-03-15T10:00:20.294Z,38.2
2017-03-15T10:01:21.536Z,38.87
2017-03-15T10:02:22.855Z,38.68
2017-03-15T10:03:24.117Z,39.06
2017-03-15T10:04:25.363Z,38.68
2017-03-15T10:05:26.609Z,38.66
2017-03-15T10:06:27.865Z,39.14
2017-03-15T10:07:29.317Z,39.06
2017-03-15T10:08:30.610Z,38.87
2017-03-15T10:09:31.844Z,38.59
2017-03-15T10:10:33.089Z,38.49
2017-03-15T10:11:34.360Z,38.78
2017-03-15T10:12:35.625Z,38.68
2017-03-15T10:13:36.853Z,38.49
2017-03-15T10:14:38.201Z,37.81
2017-03-15T10:15:39.445Z,37.74
2017-03-15T10:16:40.694Z,36.58
2017-03-15T10:17:41.976Z,35.64
2017-03-15T10:18:43.262Z,35.54
2017-03-15T10:19:44.619Z,35.25
2017-03-15T10:20:45.870Z,34.88
2017-03-15T10:21:47.115Z,34.8
2017-03-15T10:22:48.372Z,34.22
2017-03-15T10:23:49.628Z,33.65
2017-03-15T10:24:50.898Z,33.26
2017-03-15T10:25:52.162Z,32.79
2017-03-15T10:26:53.406Z,32.79
2017-03-15T10:27:54.691Z,31.85
2017-03-15T10:28:55.944Z,31.28
2017-03-15T10:29:57.230Z,30.43
2017-03-15T10:30:58.498Z,29.47
2017-03-15T10:31:59.764Z,28.7
2017-03-15T10:33:00.997Z,27.94
2017-03-15T10:34:02.297Z,26.98
2017-03-15T10:35:03.541Z,26.4
2017-03-15T10:36:04.813Z,26.99
2017-03-15T10:37:06.065Z,26.03
2017-03-15T10:38:07.346Z,25.93
2017-03-15T10:39:08.659Z,26.4
2017-03-15T10:40:09.913Z,26.31
2017-03-15T10:41:11.164Z,25.52
2017-03-15T10:42:12.411Z,26.61
2017-03-15T10:43:13.660Z,25.36
2017-03-15T10:44:14.907Z,25.07
2017-03-15T10:45:16.299Z,24.58
2017-03-15T10:46:17.438Z,24.57
2017-03-15T10:47:18.832Z,25.24
2017-03-15T10:48:20.038Z,25.14
2017-03-15T10:49:21.320Z,25.99
2017-03-15T10:50:22.645Z,26.07
2017-03-15T10:51:23.855Z,25.96
2017-03-15T10:52:25.238Z,26.64
2017-03-15T10:53:26.481Z,27.31
2017-03-15T10:54:27.737Z,27.2
2017-03-15T10:55:28.986Z,28.45
2017-03-15T10:56:30.250Z,28.83
2017-03-15T10:57:31.551Z,28.63
2017-03-15T10:58:32.812Z,28.42
2017-03-15T10:59:34.094Z,29.49
2017-03-15T11:00:35.344Z,29.76
2017-03-15T11:01:36.577Z,30.71
2017-03-15T11:02:37.822Z,32.04
2017-03-15T11:03:39.115Z,32.81
2017-03-15T11:04:40.399Z,33.18
2017-03-15T11:05:41.652Z,33.26
2017-03-15T11:06:42.938Z,34.31
2017-03-15T11:07:44.183Z,34.61
2017-03-15T11:08:45.438Z,34.97
2017-03-15T11:09:46.709Z,36.32
2017-03-15T11:10:47.966Z,36.2
2017-03-15T11:11:49.216Z,36.2
2017-03-15T11:12:50.448Z,36.3
2017-03-15T11:13:51.705Z,36.2
2017-03-15T11:14:53.017Z,36.86
2017-03-15T11:15:54.326Z,36.28
2017-03-15T11:16:55.582Z,37.91
2017-03-15T11:17:56.921Z,36.86
2017-03-15T11:18:58.176Z,37.24
2017-03-15T11:19:59.430Z,37.53
2017-03-15T11:21:00.686Z,37.41
2017-03-15T11:22:01.939Z,37.51
2017-03-15T11:23:03.305Z,37.6
2017-03-15T11:24:04.566Z,38.16
2017-03-15T11:25:05.799Z,38.54
2017-03-15T11:26:07.153Z,38.74
2017-03-15T11:27:08.436Z,38.74
2017-03-15T11:28:09.682Z,39.5
2017-03-15T11:29:10.924Z,39.5
2017-03-15T11:30:12.173Z,40.27
2017-03-15T11:31:13.429Z,40.37
2017-03-15T11:32:14.678Z,40.56
2017-03-15T11:33:15.919Z,41.8
2017-03-15T11:34:17.176Z,41.69
2017-03-15T11:35:18.445Z,41.6
2017-03-15T11:36:19.704Z,41.88
2017-03-15T11:37:20.945Z,41.88
2017-03-15T11:38:22.194Z,41.38
2017-03-15T11:39:23.512Z,41.09
2017-03-15T11:40:24.750Z,41
2017-03-15T11:41:26.122Z,41.48
2017-03-15T11:42:27.260Z,41.86
2017-03-15T11:43:28.583Z,41.57
2017-03-15T11:44:29.818Z,42.14
2017-03-15T11:45:31.076Z,42.41
2017-03-15T11:46:32.445Z,42.9
2017-03-15T11:47:33.686Z,42.7
2017-03-15T11:48:34.919Z,43.27
2017-03-15T11:49:36.167Z,42.8
2017-03-15T11:50:37.411Z,43.76
2017-03-15T11:51:38.672Z,42.8
2017-03-15T11:52:39.916Z,43.08
2017-03-15T11:53:41.193Z,42.9
2017-03-15T11:54:42.421Z,42.7
2017-03-15T11:55:43.669Z,43.37
2017-03-15T11:56:44.940Z,42.9
2017-03-15T11:57:46.180Z,42.8
2017-03-15T11:58:47.445Z,43.37
2017-03-15T11:59:48.721Z,43.56
2017-03-15T12:00:50.003Z,44.23
2017-03-15T12:01:51.232Z,43.66
2017-03-15T12:02:52.482Z,44.23
2017-03-15T12:03:53.724Z,44.23
2017-03-15T12:04:54.973Z,41.55
2017-03-15T12:05:56.282Z,40.67
2017-03-15T12:06:57.499Z,40.95
2017-03-15T12:07:58.722Z,41.53
2017-03-15T12:08:59.969Z,41.72
2017-03-15T12:10:01.212Z,41.63
2017-03-15T12:11:02.471Z,42.97
2017-03-15T12:12:03.696Z,42.97
2017-03-15T12:13:04.949Z,43.16
2017-03-15T12:14:06.208Z,43.26
2017-03-15T12:15:07.455Z,42.2
2017-03-15T12:16:08.693Z,41.63
2017-03-15T12:17:09.933Z,41.63
2017-03-15T12:18:11.201Z,41.91
2017-03-15T12:19:12.480Z,41.03
2017-03-15T12:20:13.729Z,41.8
2017-03-15T12:21:14.978Z,42.08
2017-03-15T12:22:16.243Z,42.47
2017-03-15T12:23:17.476Z,42.47
2017-03-15T12:24:18.848Z,43.9
2017-03-15T12:25:20.099Z,43.71
2017-03-15T12:26:21.344Z,44.57
2017-03-15T12:27:22.584Z,44.19
2017-03-15T12:28:23.846Z,44.57
2017-03-15T12:29:25.083Z,44.48
2017-03-15T12:30:26.334Z,43.9
2017-03-15T12:31:27.583Z,43.62
2017-03-15T12:32:28.880Z,44
2017-03-15T12:33:30.228Z,43.14
2017-03-15T12:34:31.466Z,43.62
2017-03-15T12:35:32.734Z,43.62
2017-03-15T12:36:33.985Z,43.04
2017-03-15T12:37:35.214Z,42.37
2017-03-15T12:38:36.515Z,42.76
2017-03-15T12:39:37.770Z,42.94
2017-03-15T12:40:39.017Z,42.35
2017-03-15T12:41:40.247Z,42.54
2017-03-15T12:42:41.483Z,43.02
2017-03-15T12:43:42.769Z,43.5
2017-03-15T12:44:44.010Z,43.88
2017-03-15T12:45:45.267Z,43.79
2017-03-15T12:46:46.521Z,43.33
2017-03-15T12:47:47.779Z,43.23
2017-03-15T12:48:49.009Z,42.66
2017-03-15T12:49:50.277Z,43.14
2017-03-15T12:50:51.519Z,43.71
2017-03-15T12:51:52.765Z,43.5
2017-03-15T12:52:54.035Z,44.17
2017-03-15T12:53:55.292Z,44.26
2017-03-15T12:54:56.546Z,44.07
2017-03-15T12:55:57.828Z,44.17
2017-03-15T12:56:59.078Z,44.45
2017-03-15T12:58:00.356Z,44.65
2017-03-15T12:59:01.617Z,44.65
2017-03-15T13:00:02.867Z,44.93
2017-03-15T13:01:04.109Z,45.31
2017-03-15T13:02:05.353Z,44.17
2017-03-15T13:03:06.709Z,44.07
2017-03-15T13:04:07.908Z,43.98
2017-03-15T13:05:09.172Z,44.74
2017-03-15T13:06:10.416Z,44.26
2017-03-15T13:07:11.649Z,44.48
2017-03-15T13:08:12.925Z,44.93
2017-03-15T13:09:14.218Z,43.98
2017-03-15T13:10:15.441Z,44.36
2017-03-15T13:11:16.706Z,44.74
2017-03-15T13:12:17.970Z,45.41